sensor_id;sensor_type;location;lat;lon;timestamp;P1;durP1;ratioP1;P2;durP2;ratioP2
17177;SDS011;8704;52.006;4.374;2023-11-21T00:00:03;52.10;;;47.63;;
17177;SDS011;8704;52.006;4.374;2023-11-21T00:02:37;52.03;;;48.13;;
17177;SDS011;8704;52.006;4.374;2023-11-21T00:05:08;58.97;;;54.05;;
17177;SDS011;8704;52.006;4.374;2023-11-21T00:07:36;57.60;;;53.10;;
17177;SDS011;8704;52.006;4.374;2023-11-21T00:10:05;56.17;;;52.25;;
17177;SDS011;8704;52.006;4.374;2023-11-21T00:12:34;57.20;;;53.22;;
17177;SDS011;8704;52.006;4.374;2023-11-21T00:15:03;56.40;;;52.20;;
17177;SDS011;8704;52.006;4.374;2023-11-21T00:17:32;57.00;;;52.20;;
17177;SDS011;8704;52.006;4.374;2023-11-21T00:20:00;56.75;;;52.28;;
17177;SDS011;8704;52.006;4.374;2023-11-21T00:22:34;59.75;;;55.28;;
17177;SDS011;8704;52.006;4.374;2023-11-21T00:25:03;59.53;;;55.08;;
17177;SDS011;8704;52.006;4.374;2023-11-21T00:27:31;56.20;;;52.15;;
17177;SDS011;8704;52.006;4.374;2023-11-21T00:29:59;58.65;;;54.10;;
17177;SDS011;8704;52.006;4.374;2023-11-21T00:32:27;60.58;;;55.85;;
17177;SDS011;8704;52.006;4.374;2023-11-21T00:34:55;61.95;;;57.15;;
17177;SDS011;8704;52.006;4.374;2023-11-21T00:37:23;72.63;;;66.68;;
17177;SDS011;8704;52.006;4.374;2023-11-21T00:39:53;67.35;;;62.60;;
17177;SDS011;8704;52.006;4.374;2023-11-21T00:42:21;64.18;;;59.78;;
17177;SDS011;8704;52.006;4.374;2023-11-21T00:44:49;69.88;;;64.85;;
17177;SDS011;8704;52.006;4.374;2023-11-21T00:47:17;68.85;;;63.90;;
17177;SDS011;8704;52.006;4.374;2023-11-21T00:49:45;66.22;;;61.72;;
17177;SDS011;8704;52.006;4.374;2023-11-21T00:52:13;63.95;;;59.53;;
17177;SDS011;8704;52.006;4.374;2023-11-21T00:54:42;65.55;;;60.88;;
17177;SDS011;8704;52.006;4.374;2023-11-21T00:57:12;67.68;;;62.42;;
17177;SDS011;8704;52.006;4.374;2023-11-21T00:59:40;69.88;;;65.18;;
17177;SDS011;8704;52.006;4.374;2023-11-21T01:02:08;65.97;;;61.28;;
17177;SDS011;8704;52.006;4.374;2023-11-21T01:04:37;67.03;;;61.78;;
17177;SDS011;8704;52.006;4.374;2023-11-21T01:07:05;68.15;;;62.58;;
17177;SDS011;8704;52.006;4.374;2023-11-21T01:09:33;64.32;;;59.75;;
17177;SDS011;8704;52.006;4.374;2023-11-21T01:12:01;63.72;;;59.42;;
17177;SDS011;8704;52.006;4.374;2023-11-21T01:14:31;63.33;;;59.17;;
17177;SDS011;8704;52.006;4.374;2023-11-21T01:16:59;60.22;;;56.13;;
17177;SDS011;8704;52.006;4.374;2023-11-21T01:19:27;63.92;;;58.38;;
17177;SDS011;8704;52.006;4.374;2023-11-21T01:21:56;54.28;;;50.70;;
17177;SDS011;8704;52.006;4.374;2023-11-21T01:24:24;48.63;;;44.97;;
17177;SDS011;8704;52.006;4.374;2023-11-21T01:26:52;51.10;;;47.00;;
17177;SDS011;8704;52.006;4.374;2023-11-21T01:29:20;44.40;;;41.17;;
17177;SDS011;8704;52.006;4.374;2023-11-21T01:31:49;43.42;;;39.92;;
17177;SDS011;8704;52.006;4.374;2023-11-21T01:34:18;45.05;;;41.55;;
17177;SDS011;8704;52.006;4.374;2023-11-21T01:36:47;45.38;;;41.97;;
17177;SDS011;8704;52.006;4.374;2023-11-21T01:39:15;42.22;;;38.60;;
17177;SDS011;8704;52.006;4.374;2023-11-21T01:41:49;42.70;;;38.83;;
17177;SDS011;8704;52.006;4.374;2023-11-21T01:44:18;41.35;;;38.25;;
17177;SDS011;8704;52.006;4.374;2023-11-21T01:46:46;41.58;;;38.42;;
17177;SDS011;8704;52.006;4.374;2023-11-21T01:49:16;40.63;;;37.42;;
17177;SDS011;8704;52.006;4.374;2023-11-21T01:51:47;40.33;;;36.63;;
17177;SDS011;8704;52.006;4.374;2023-11-21T01:54:16;38.13;;;35.53;;
17177;SDS011;8704;52.006;4.374;2023-11-21T01:56:45;36.05;;;33.10;;
17177;SDS011;8704;52.006;4.374;2023-11-21T01:59:15;37.25;;;34.35;;
17177;SDS011;8704;52.006;4.374;2023-11-21T02:01:47;36.40;;;33.30;;
17177;SDS011;8704;52.006;4.374;2023-11-21T02:04:18;36.67;;;33.85;;
17177;SDS011;8704;52.006;4.374;2023-11-21T02:06:47;35.45;;;32.70;;
17177;SDS011;8704;52.006;4.374;2023-11-21T02:09:17;35.17;;;32.40;;
17177;SDS011;8704;52.006;4.374;2023-11-21T02:11:52;37.20;;;34.15;;
17177;SDS011;8704;52.006;4.374;2023-11-21T02:14:24;40.00;;;36.75;;
17177;SDS011;8704;52.006;4.374;2023-11-21T02:16:53;38.30;;;35.08;;
17177;SDS011;8704;52.006;4.374;2023-11-21T02:19:23;40.55;;;36.45;;
17177;SDS011;8704;52.006;4.374;2023-11-21T02:21:52;38.03;;;35.22;;
17177;SDS011;8704;52.006;4.374;2023-11-21T02:24:22;38.22;;;34.88;;
17177;SDS011;8704;52.006;4.374;2023-11-21T02:26:51;35.45;;;32.65;;
17177;SDS011;8704;52.006;4.374;2023-11-21T02:29:19;38.33;;;35.08;;
17177;SDS011;8704;52.006;4.374;2023-11-21T02:31:49;35.72;;;32.88;;
17177;SDS011;8704;52.006;4.374;2023-11-21T02:34:21;35.75;;;32.72;;
17177;SDS011;8704;52.006;4.374;2023-11-21T02:36:51;40.05;;;37.08;;
17177;SDS011;8704;52.006;4.374;2023-11-21T02:39:21;39.45;;;36.47;;
17177;SDS011;8704;52.006;4.374;2023-11-21T02:41:51;43.55;;;40.10;;
17177;SDS011;8704;52.006;4.374;2023-11-21T02:44:19;41.10;;;37.80;;
17177;SDS011;8704;52.006;4.374;2023-11-21T02:46:47;36.22;;;33.72;;
17177;SDS011;8704;52.006;4.374;2023-11-21T02:49:15;39.20;;;35.95;;
17177;SDS011;8704;52.006;4.374;2023-11-21T02:51:43;42.58;;;39.03;;
17177;SDS011;8704;52.006;4.374;2023-11-21T02:54:11;38.75;;;36.03;;
17177;SDS011;8704;52.006;4.374;2023-11-21T02:56:43;38.70;;;35.90;;
17177;SDS011;8704;52.006;4.374;2023-11-21T02:59:12;36.42;;;33.67;;
17177;SDS011;8704;52.006;4.374;2023-11-21T03:01:40;36.22;;;33.40;;
17177;SDS011;8704;52.006;4.374;2023-11-21T03:04:08;39.53;;;36.00;;
17177;SDS011;8704;52.006;4.374;2023-11-21T03:06:36;37.80;;;35.10;;
17177;SDS011;8704;52.006;4.374;2023-11-21T03:09:04;38.25;;;35.60;;
17177;SDS011;8704;52.006;4.374;2023-11-21T03:11:33;39.72;;;37.03;;
17177;SDS011;8704;52.006;4.374;2023-11-21T03:14:02;36.30;;;33.90;;
17177;SDS011;8704;52.006;4.374;2023-11-21T03:16:31;38.08;;;35.47;;
17177;SDS011;8704;52.006;4.374;2023-11-21T03:18:59;36.90;;;34.42;;
17177;SDS011;8704;52.006;4.374;2023-11-21T03:21:27;37.92;;;35.22;;
17177;SDS011;8704;52.006;4.374;2023-11-21T03:23:56;42.83;;;39.40;;
17177;SDS011;8704;52.006;4.374;2023-11-21T03:26:26;42.65;;;39.33;;
17177;SDS011;8704;52.006;4.374;2023-11-21T03:28:54;41.88;;;38.88;;
17177;SDS011;8704;52.006;4.374;2023-11-21T03:31:23;42.45;;;39.20;;
17177;SDS011;8704;52.006;4.374;2023-11-21T03:33:51;40.85;;;37.75;;
17177;SDS011;8704;52.006;4.374;2023-11-21T03:36:20;42.65;;;39.30;;
17177;SDS011;8704;52.006;4.374;2023-11-21T03:38:48;40.85;;;37.90;;
17177;SDS011;8704;52.006;4.374;2023-11-21T03:41:16;40.95;;;38.35;;
17177;SDS011;8704;52.006;4.374;2023-11-21T03:43:44;41.60;;;38.50;;
17177;SDS011;8704;52.006;4.374;2023-11-21T03:46:12;41.03;;;38.08;;
17177;SDS011;8704;52.006;4.374;2023-11-21T03:48:41;42.13;;;39.03;;
17177;SDS011;8704;52.006;4.374;2023-11-21T03:51:09;44.17;;;41.25;;
17177;SDS011;8704;52.006;4.374;2023-11-21T03:53:37;44.38;;;41.58;;
17177;SDS011;8704;52.006;4.374;2023-11-21T03:56:06;42.47;;;39.47;;
17177;SDS011;8704;52.006;4.374;2023-11-21T03:58:34;44.72;;;41.88;;
17177;SDS011;8704;52.006;4.374;2023-11-21T04:01:02;45.40;;;42.35;;
17177;SDS011;8704;52.006;4.374;2023-11-21T04:03:30;43.65;;;40.88;;
17177;SDS011;8704;52.006;4.374;2023-11-21T04:06:00;42.75;;;39.85;;
17177;SDS011;8704;52.006;4.374;2023-11-21T04:08:28;35.63;;;33.22;;
17177;SDS011;8704;52.006;4.374;2023-11-21T04:10:56;36.55;;;34.08;;
17177;SDS011;8704;52.006;4.374;2023-11-21T04:13:24;35.28;;;32.95;;
17177;SDS011;8704;52.006;4.374;2023-11-21T04:15:52;36.25;;;33.67;;
17177;SDS011;8704;52.006;4.374;2023-11-21T04:18:20;37.15;;;34.45;;
17177;SDS011;8704;52.006;4.374;2023-11-21T04:20:48;38.97;;;35.97;;
17177;SDS011;8704;52.006;4.374;2023-11-21T04:23:18;40.25;;;37.65;;
17177;SDS011;8704;52.006;4.374;2023-11-21T04:25:46;38.28;;;35.92;;
17177;SDS011;8704;52.006;4.374;2023-11-21T04:28:14;36.65;;;34.25;;
17177;SDS011;8704;52.006;4.374;2023-11-21T04:30:42;34.75;;;32.47;;
17177;SDS011;8704;52.006;4.374;2023-11-21T04:33:10;35.33;;;33.05;;
17177;SDS011;8704;52.006;4.374;2023-11-21T04:35:38;38.47;;;35.72;;
17177;SDS011;8704;52.006;4.374;2023-11-21T04:38:06;38.00;;;35.47;;
17177;SDS011;8704;52.006;4.374;2023-11-21T04:40:36;41.35;;;38.33;;
17177;SDS011;8704;52.006;4.374;2023-11-21T04:43:04;36.45;;;33.95;;
17177;SDS011;8704;52.006;4.374;2023-11-21T04:45:32;40.25;;;37.22;;
17177;SDS011;8704;52.006;4.374;2023-11-21T04:48:00;40.08;;;37.45;;
17177;SDS011;8704;52.006;4.374;2023-11-21T04:50:28;42.83;;;39.92;;
17177;SDS011;8704;52.006;4.374;2023-11-21T04:52:56;41.25;;;38.45;;
17177;SDS011;8704;52.006;4.374;2023-11-21T04:55:24;43.50;;;39.60;;
17177;SDS011;8704;52.006;4.374;2023-11-21T04:57:55;43.80;;;40.88;;
17177;SDS011;8704;52.006;4.374;2023-11-21T05:00:23;46.35;;;42.38;;
17177;SDS011;8704;52.006;4.374;2023-11-21T05:02:52;44.58;;;41.28;;
17177;SDS011;8704;52.006;4.374;2023-11-21T05:05:20;43.30;;;40.25;;
17177;SDS011;8704;52.006;4.374;2023-11-21T05:07:48;35.22;;;32.92;;
17177;SDS011;8704;52.006;4.374;2023-11-21T05:10:17;33.10;;;30.60;;
17177;SDS011;8704;52.006;4.374;2023-11-21T05:12:45;28.15;;;26.17;;
17177;SDS011;8704;52.006;4.374;2023-11-21T05:15:15;25.35;;;23.33;;
17177;SDS011;8704;52.006;4.374;2023-11-21T05:17:44;24.70;;;22.70;;
17177;SDS011;8704;52.006;4.374;2023-11-21T05:20:13;21.92;;;20.27;;
17177;SDS011;8704;52.006;4.374;2023-11-21T05:22:44;20.77;;;19.08;;
17177;SDS011;8704;52.006;4.374;2023-11-21T05:25:13;21.08;;;19.58;;
17177;SDS011;8704;52.006;4.374;2023-11-21T05:27:41;19.60;;;18.00;;
17177;SDS011;8704;52.006;4.374;2023-11-21T05:30:09;19.98;;;18.23;;
17177;SDS011;8704;52.006;4.374;2023-11-21T05:32:40;18.63;;;17.02;;
17177;SDS011;8704;52.006;4.374;2023-11-21T05:35:10;19.77;;;18.33;;
17177;SDS011;8704;52.006;4.374;2023-11-21T05:37:42;20.83;;;19.25;;
17177;SDS011;8704;52.006;4.374;2023-11-21T05:40:10;26.05;;;24.35;;
17177;SDS011;8704;52.006;4.374;2023-11-21T05:42:39;29.30;;;27.13;;
17177;SDS011;8704;52.006;4.374;2023-11-21T05:45:08;35.25;;;32.95;;
17177;SDS011;8704;52.006;4.374;2023-11-21T05:47:37;35.65;;;33.15;;
17177;SDS011;8704;52.006;4.374;2023-11-21T05:50:08;40.65;;;38.03;;
17177;SDS011;8704;52.006;4.374;2023-11-21T05:52:38;41.67;;;39.20;;
17177;SDS011;8704;52.006;4.374;2023-11-21T05:55:07;42.10;;;39.38;;
17177;SDS011;8704;52.006;4.374;2023-11-21T05:57:35;37.72;;;35.22;;
17177;SDS011;8704;52.006;4.374;2023-11-21T06:00:04;44.90;;;41.92;;
17177;SDS011;8704;52.006;4.374;2023-11-21T06:02:37;47.42;;;44.53;;
17177;SDS011;8704;52.006;4.374;2023-11-21T06:05:06;47.65;;;44.90;;
17177;SDS011;8704;52.006;4.374;2023-11-21T06:07:36;51.13;;;47.92;;
17177;SDS011;8704;52.006;4.374;2023-11-21T06:10:07;49.55;;;46.75;;
17177;SDS011;8704;52.006;4.374;2023-11-21T06:12:36;50.45;;;47.35;;
17177;SDS011;8704;52.006;4.374;2023-11-21T06:15:04;54.00;;;50.88;;
17177;SDS011;8704;52.006;4.374;2023-11-21T06:17:34;53.28;;;50.13;;
17177;SDS011;8704;52.006;4.374;2023-11-21T06:20:04;48.88;;;46.08;;
17177;SDS011;8704;52.006;4.374;2023-11-21T06:22:38;53.45;;;50.25;;
17177;SDS011;8704;52.006;4.374;2023-11-21T06:25:07;49.25;;;46.45;;
17177;SDS011;8704;52.006;4.374;2023-11-21T06:27:39;45.17;;;42.88;;
17177;SDS011;8704;52.006;4.374;2023-11-21T06:30:08;47.33;;;44.45;;
17177;SDS011;8704;52.006;4.374;2023-11-21T06:32:38;43.70;;;41.15;;
17177;SDS011;8704;52.006;4.374;2023-11-21T06:35:07;42.72;;;40.00;;
17177;SDS011;8704;52.006;4.374;2023-11-21T06:37:37;36.30;;;34.10;;
17177;SDS011;8704;52.006;4.374;2023-11-21T06:40:06;38.28;;;35.88;;
17177;SDS011;8704;52.006;4.374;2023-11-21T06:42:36;38.15;;;35.78;;
17177;SDS011;8704;52.006;4.374;2023-11-21T06:45:05;39.28;;;36.55;;
17177;SDS011;8704;52.006;4.374;2023-11-21T06:47:37;37.05;;;34.53;;
17177;SDS011;8704;52.006;4.374;2023-11-21T06:50:06;39.55;;;33.33;;
17177;SDS011;8704;52.006;4.374;2023-11-21T06:52:35;35.20;;;33.15;;
17177;SDS011;8704;52.006;4.374;2023-11-21T06:55:05;31.83;;;30.02;;
17177;SDS011;8704;52.006;4.374;2023-11-21T06:57:36;38.92;;;36.42;;
17177;SDS011;8704;52.006;4.374;2023-11-21T07:00:05;37.47;;;35.38;;
17177;SDS011;8704;52.006;4.374;2023-11-21T07:02:35;38.85;;;36.60;;
17177;SDS011;8704;52.006;4.374;2023-11-21T07:05:05;40.90;;;38.05;;
17177;SDS011;8704;52.006;4.374;2023-11-21T07:07:33;44.90;;;41.85;;
17177;SDS011;8704;52.006;4.374;2023-11-21T07:10:05;43.90;;;40.55;;
17177;SDS011;8704;52.006;4.374;2023-11-21T07:12:35;47.30;;;44.40;;
17177;SDS011;8704;52.006;4.374;2023-11-21T07:15:03;47.58;;;44.38;;
17177;SDS011;8704;52.006;4.374;2023-11-21T07:20:07;53.53;;;49.58;;
17177;SDS011;8704;52.006;4.374;2023-11-21T07:22:35;59.38;;;55.58;;
17177;SDS011;8704;52.006;4.374;2023-11-21T07:25:05;66.80;;;62.65;;
17177;SDS011;8704;52.006;4.374;2023-11-21T07:27:35;68.75;;;64.40;;
17177;SDS011;8704;52.006;4.374;2023-11-21T07:30:04;70.93;;;66.30;;
17177;SDS011;8704;52.006;4.374;2023-11-21T07:32:34;77.03;;;71.72;;
17177;SDS011;8704;52.006;4.374;2023-11-21T07:35:06;79.47;;;74.60;;
17177;SDS011;8704;52.006;4.374;2023-11-21T07:37:35;76.22;;;71.20;;
17177;SDS011;8704;52.006;4.374;2023-11-21T07:40:05;79.68;;;74.55;;
17177;SDS011;8704;52.006;4.374;2023-11-21T07:42:37;78.93;;;74.05;;
17177;SDS011;8704;52.006;4.374;2023-11-21T07:45:06;74.28;;;69.85;;
17177;SDS011;8704;52.006;4.374;2023-11-21T07:47:35;77.53;;;72.75;;
17177;SDS011;8704;52.006;4.374;2023-11-21T07:50:06;77.20;;;72.30;;
17177;SDS011;8704;52.006;4.374;2023-11-21T07:52:35;73.57;;;68.40;;
17177;SDS011;8704;52.006;4.374;2023-11-21T07:55:05;75.38;;;70.65;;
17177;SDS011;8704;52.006;4.374;2023-11-21T07:57:34;78.70;;;72.82;;
17177;SDS011;8704;52.006;4.374;2023-11-21T08:00:02;74.40;;;69.90;;
17177;SDS011;8704;52.006;4.374;2023-11-21T08:02:32;77.70;;;72.78;;
17177;SDS011;8704;52.006;4.374;2023-11-21T08:05:01;77.18;;;72.53;;
17177;SDS011;8704;52.006;4.374;2023-11-21T08:07:29;75.53;;;70.63;;
17177;SDS011;8704;52.006;4.374;2023-11-21T08:09:57;72.65;;;68.30;;
17177;SDS011;8704;52.006;4.374;2023-11-21T08:12:26;68.88;;;65.07;;
17177;SDS011;8704;52.006;4.374;2023-11-21T08:14:55;63.35;;;59.50;;
17177;SDS011;8704;52.006;4.374;2023-11-21T08:17:23;62.78;;;58.78;;
17177;SDS011;8704;52.006;4.374;2023-11-21T08:19:51;50.13;;;46.72;;
17177;SDS011;8704;52.006;4.374;2023-11-21T08:22:19;45.80;;;42.53;;
17177;SDS011;8704;52.006;4.374;2023-11-21T08:24:49;45.90;;;42.72;;
17177;SDS011;8704;52.006;4.374;2023-11-21T08:27:18;48.05;;;44.58;;
17177;SDS011;8704;52.006;4.374;2023-11-21T08:29:47;46.97;;;43.67;;
17177;SDS011;8704;52.006;4.374;2023-11-21T08:32:15;41.80;;;38.35;;
17177;SDS011;8704;52.006;4.374;2023-11-21T08:34:43;41.33;;;38.63;;
17177;SDS011;8704;52.006;4.374;2023-11-21T08:37:14;42.60;;;39.75;;
17177;SDS011;8704;52.006;4.374;2023-11-21T08:39:42;43.95;;;40.17;;
17177;SDS011;8704;52.006;4.374;2023-11-21T08:42:11;39.70;;;36.50;;
17177;SDS011;8704;52.006;4.374;2023-11-21T08:44:39;35.65;;;33.00;;
17177;SDS011;8704;52.006;4.374;2023-11-21T08:47:09;39.38;;;36.40;;
17177;SDS011;8704;52.006;4.374;2023-11-21T08:49:37;38.95;;;35.65;;
17177;SDS011;8704;52.006;4.374;2023-11-21T08:52:05;32.83;;;30.35;;
17177;SDS011;8704;52.006;4.374;2023-11-21T08:54:33;33.13;;;30.42;;
17177;SDS011;8704;52.006;4.374;2023-11-21T08:57:01;31.27;;;28.77;;
17177;SDS011;8704;52.006;4.374;2023-11-21T08:59:29;26.90;;;24.60;;
17177;SDS011;8704;52.006;4.374;2023-11-21T09:01:58;29.88;;;26.90;;
17177;SDS011;8704;52.006;4.374;2023-11-21T09:04:27;23.05;;;21.15;;
17177;SDS011;8704;52.006;4.374;2023-11-21T09:06:55;23.35;;;21.38;;
17177;SDS011;8704;52.006;4.374;2023-11-21T09:09:26;23.33;;;21.60;;
17177;SDS011;8704;52.006;4.374;2023-11-21T09:11:54;22.08;;;20.27;;
17177;SDS011;8704;52.006;4.374;2023-11-21T09:14:22;23.85;;;22.15;;
17177;SDS011;8704;52.006;4.374;2023-11-21T09:16:50;22.98;;;21.08;;
17177;SDS011;8704;52.006;4.374;2023-11-21T09:19:19;23.23;;;21.40;;
17177;SDS011;8704;52.006;4.374;2023-11-21T09:21:48;22.52;;;20.88;;
17177;SDS011;8704;52.006;4.374;2023-11-21T09:24:17;22.08;;;20.50;;
17177;SDS011;8704;52.006;4.374;2023-11-21T09:26:45;22.02;;;20.30;;
17177;SDS011;8704;52.006;4.374;2023-11-21T09:29:13;22.80;;;21.10;;
17177;SDS011;8704;52.006;4.374;2023-11-21T09:31:41;23.65;;;21.95;;
17177;SDS011;8704;52.006;4.374;2023-11-21T09:34:10;24.35;;;22.63;;
17177;SDS011;8704;52.006;4.374;2023-11-21T09:36:38;25.23;;;23.33;;
17177;SDS011;8704;52.006;4.374;2023-11-21T09:39:08;21.95;;;20.13;;
17177;SDS011;8704;52.006;4.374;2023-11-21T09:41:37;20.63;;;19.08;;
17177;SDS011;8704;52.006;4.374;2023-11-21T09:44:13;20.42;;;18.80;;
17177;SDS011;8704;52.006;4.374;2023-11-21T09:46:44;21.80;;;20.10;;
17177;SDS011;8704;52.006;4.374;2023-11-21T09:49:16;21.50;;;19.77;;
17177;SDS011;8704;52.006;4.374;2023-11-21T09:51:49;20.58;;;19.08;;
17177;SDS011;8704;52.006;4.374;2023-11-21T09:54:20;19.55;;;17.75;;
17177;SDS011;8704;52.006;4.374;2023-11-21T09:56:50;19.73;;;18.13;;
17177;SDS011;8704;52.006;4.374;2023-11-21T09:59:18;18.88;;;17.33;;
17177;SDS011;8704;52.006;4.374;2023-11-21T10:01:47;19.13;;;17.50;;
17177;SDS011;8704;52.006;4.374;2023-11-21T10:04:17;16.45;;;15.05;;
17177;SDS011;8704;52.006;4.374;2023-11-21T10:06:46;16.98;;;15.55;;
17177;SDS011;8704;52.006;4.374;2023-11-21T10:09:16;16.80;;;15.18;;
17177;SDS011;8704;52.006;4.374;2023-11-21T10:11:48;17.00;;;15.63;;
17177;SDS011;8704;52.006;4.374;2023-11-21T10:14:18;16.63;;;15.32;;
17177;SDS011;8704;52.006;4.374;2023-11-21T10:16:49;15.27;;;13.98;;
17177;SDS011;8704;52.006;4.374;2023-11-21T10:19:18;14.52;;;13.13;;
17177;SDS011;8704;52.006;4.374;2023-11-21T10:21:47;14.18;;;12.77;;
17177;SDS011;8704;52.006;4.374;2023-11-21T10:24:15;14.25;;;13.05;;
17177;SDS011;8704;52.006;4.374;2023-11-21T10:26:44;15.93;;;14.52;;
17177;SDS011;8704;52.006;4.374;2023-11-21T10:29:20;14.25;;;12.95;;
17177;SDS011;8704;52.006;4.374;2023-11-21T10:31:49;12.38;;;11.30;;
17177;SDS011;8704;52.006;4.374;2023-11-21T10:34:18;12.60;;;11.50;;
17177;SDS011;8704;52.006;4.374;2023-11-21T10:36:47;10.60;;;9.68;;
17177;SDS011;8704;52.006;4.374;2023-11-21T10:39:16;12.68;;;11.68;;
17177;SDS011;8704;52.006;4.374;2023-11-21T10:41:45;11.95;;;10.98;;
17177;SDS011;8704;52.006;4.374;2023-11-21T10:44:14;10.73;;;9.82;;
17177;SDS011;8704;52.006;4.374;2023-11-21T10:46:49;10.32;;;9.43;;
17177;SDS011;8704;52.006;4.374;2023-11-21T10:49:18;11.32;;;10.32;;
17177;SDS011;8704;52.006;4.374;2023-11-21T10:51:47;12.30;;;11.40;;
17177;SDS011;8704;52.006;4.374;2023-11-21T10:54:17;11.85;;;10.85;;
17177;SDS011;8704;52.006;4.374;2023-11-21T10:56:47;12.50;;;11.30;;
17177;SDS011;8704;52.006;4.374;2023-11-21T10:59:17;11.55;;;10.65;;
17177;SDS011;8704;52.006;4.374;2023-11-21T11:01:49;11.73;;;10.73;;
17177;SDS011;8704;52.006;4.374;2023-11-21T11:04:19;11.95;;;10.82;;
17177;SDS011;8704;52.006;4.374;2023-11-21T11:06:49;12.90;;;11.73;;
17177;SDS011;8704;52.006;4.374;2023-11-21T11:09:21;11.00;;;10.05;;
17177;SDS011;8704;52.006;4.374;2023-11-21T11:11:50;11.27;;;10.18;;
17177;SDS011;8704;52.006;4.374;2023-11-21T11:14:20;11.27;;;10.38;;
17177;SDS011;8704;52.006;4.374;2023-11-21T11:16:53;10.85;;;9.80;;
17177;SDS011;8704;52.006;4.374;2023-11-21T11:19:23;12.38;;;11.38;;
17177;SDS011;8704;52.006;4.374;2023-11-21T11:21:53;12.55;;;11.35;;
17177;SDS011;8704;52.006;4.374;2023-11-21T11:24:37;11.95;;;10.63;;
17177;SDS011;8704;52.006;4.374;2023-11-21T11:27:25;12.40;;;11.32;;
17177;SDS011;8704;52.006;4.374;2023-11-21T11:30:04;12.88;;;11.77;;
17177;SDS011;8704;52.006;4.374;2023-11-21T11:32:48;10.88;;;9.45;;
17177;SDS011;8704;52.006;4.374;2023-11-21T11:35:24;12.52;;;11.38;;
17177;SDS011;8704;52.006;4.374;2023-11-21T11:37:59;12.27;;;11.07;;
17177;SDS011;8704;52.006;4.374;2023-11-21T11:40:38;12.05;;;10.07;;
17177;SDS011;8704;52.006;4.374;2023-11-21T11:43:07;12.38;;;11.07;;
17177;SDS011;8704;52.006;4.374;2023-11-21T11:45:36;12.82;;;11.05;;
17177;SDS011;8704;52.006;4.374;2023-11-21T11:48:10;13.85;;;12.40;;
17177;SDS011;8704;52.006;4.374;2023-11-21T11:50:42;13.32;;;11.93;;
17177;SDS011;8704;52.006;4.374;2023-11-21T11:53:25;12.82;;;11.50;;
17177;SDS011;8704;52.006;4.374;2023-11-21T11:55:57;12.88;;;11.57;;
17177;SDS011;8704;52.006;4.374;2023-11-21T11:58:46;13.25;;;11.80;;
17177;SDS011;8704;52.006;4.374;2023-11-21T12:01:16;13.13;;;11.15;;
17177;SDS011;8704;52.006;4.374;2023-11-21T12:03:58;12.80;;;11.20;;
17177;SDS011;8704;52.006;4.374;2023-11-21T12:07:01;14.00;;;10.48;;
17177;SDS011;8704;52.006;4.374;2023-11-21T12:09:30;13.60;;;12.00;;
17177;SDS011;8704;52.006;4.374;2023-11-21T12:11:59;12.13;;;10.82;;
17177;SDS011;8704;52.006;4.374;2023-11-21T12:14:28;11.73;;;10.50;;
17177;SDS011;8704;52.006;4.374;2023-11-21T12:16:57;12.60;;;11.30;;
17177;SDS011;8704;52.006;4.374;2023-11-21T12:19:27;13.70;;;11.07;;
17177;SDS011;8704;52.006;4.374;2023-11-21T12:21:55;13.82;;;10.18;;
17177;SDS011;8704;52.006;4.374;2023-11-21T12:24:24;10.93;;;9.80;;
17177;SDS011;8704;52.006;4.374;2023-11-21T12:26:54;11.75;;;9.73;;
17177;SDS011;8704;52.006;4.374;2023-11-21T12:29:21;11.80;;;10.57;;
17177;SDS011;8704;52.006;4.374;2023-11-21T12:31:49;11.57;;;10.38;;
17177;SDS011;8704;52.006;4.374;2023-11-21T12:34:18;12.80;;;11.48;;
17177;SDS011;8704;52.006;4.374;2023-11-21T12:36:47;12.63;;;10.27;;
17177;SDS011;8704;52.006;4.374;2023-11-21T12:39:15;14.00;;;10.57;;
17177;SDS011;8704;52.006;4.374;2023-11-21T12:41:43;13.38;;;10.13;;
17177;SDS011;8704;52.006;4.374;2023-11-21T12:44:12;11.98;;;9.40;;
17177;SDS011;8704;52.006;4.374;2023-11-21T12:46:42;10.10;;;8.50;;
17177;SDS011;8704;52.006;4.374;2023-11-21T12:49:12;10.38;;;9.20;;
17177;SDS011;8704;52.006;4.374;2023-11-21T12:51:44;11.40;;;10.05;;
17177;SDS011;8704;52.006;4.374;2023-11-21T12:54:15;12.32;;;10.48;;
17177;SDS011;8704;52.006;4.374;2023-11-21T12:56:44;9.70;;;8.45;;
17177;SDS011;8704;52.006;4.374;2023-11-21T12:59:15;12.90;;;9.50;;
17177;SDS011;8704;52.006;4.374;2023-11-21T13:01:44;11.60;;;9.18;;
17177;SDS011;8704;52.006;4.374;2023-11-21T13:04:13;10.30;;;9.10;;
17177;SDS011;8704;52.006;4.374;2023-11-21T13:06:41;9.93;;;7.90;;
17177;SDS011;8704;52.006;4.374;2023-11-21T13:09:09;11.02;;;8.60;;
17177;SDS011;8704;52.006;4.374;2023-11-21T13:11:39;7.70;;;6.82;;
17177;SDS011;8704;52.006;4.374;2023-11-21T13:14:07;8.68;;;7.22;;
17177;SDS011;8704;52.006;4.374;2023-11-21T13:16:37;8.15;;;7.05;;
17177;SDS011;8704;52.006;4.374;2023-11-21T13:19:12;9.73;;;6.85;;
17177;SDS011;8704;52.006;4.374;2023-11-21T13:21:40;10.13;;;7.35;;
17177;SDS011;8704;52.006;4.374;2023-11-21T13:24:08;10.30;;;7.32;;
17177;SDS011;8704;52.006;4.374;2023-11-21T13:26:36;9.43;;;7.32;;
17177;SDS011;8704;52.006;4.374;2023-11-21T13:29:06;7.90;;;6.70;;
17177;SDS011;8704;52.006;4.374;2023-11-21T13:31:34;7.03;;;6.20;;
17177;SDS011;8704;52.006;4.374;2023-11-21T13:34:03;8.80;;;6.70;;
17177;SDS011;8704;52.006;4.374;2023-11-21T13:36:34;7.53;;;6.35;;
17177;SDS011;8704;52.006;4.374;2023-11-21T13:39:03;9.77;;;7.47;;
17177;SDS011;8704;52.006;4.374;2023-11-21T13:41:37;10.10;;;7.80;;
17177;SDS011;8704;52.006;4.374;2023-11-21T13:44:07;11.25;;;7.82;;
17177;SDS011;8704;52.006;4.374;2023-11-21T13:46:43;9.10;;;8.05;;
17177;SDS011;8704;52.006;4.374;2023-11-21T13:49:12;9.77;;;8.13;;
17177;SDS011;8704;52.006;4.374;2023-11-21T13:51:42;8.70;;;7.25;;
17177;SDS011;8704;52.006;4.374;2023-11-21T13:54:11;9.32;;;7.43;;
17177;SDS011;8704;52.006;4.374;2023-11-21T13:56:41;10.57;;;7.80;;
17177;SDS011;8704;52.006;4.374;2023-11-21T13:59:13;11.65;;;7.65;;
17177;SDS011;8704;52.006;4.374;2023-11-21T14:01:47;12.93;;;8.02;;
17177;SDS011;8704;52.006;4.374;2023-11-21T14:04:24;13.20;;;8.55;;
17177;SDS011;8704;52.006;4.374;2023-11-21T14:07:13;10.23;;;8.25;;
17177;SDS011;8704;52.006;4.374;2023-11-21T14:09:58;10.25;;;8.60;;
17177;SDS011;8704;52.006;4.374;2023-11-21T14:12:26;9.15;;;7.70;;
17177;SDS011;8704;52.006;4.374;2023-11-21T14:14:56;9.60;;;7.65;;
17177;SDS011;8704;52.006;4.374;2023-11-21T14:17:24;8.40;;;7.25;;
17177;SDS011;8704;52.006;4.374;2023-11-21T14:19:53;10.15;;;7.55;;
17177;SDS011;8704;52.006;4.374;2023-11-21T14:22:22;8.68;;;7.30;;
17177;SDS011;8704;52.006;4.374;2023-11-21T14:24:52;9.90;;;8.90;;
17177;SDS011;8704;52.006;4.374;2023-11-21T14:27:22;11.63;;;9.23;;
17177;SDS011;8704;52.006;4.374;2023-11-21T14:29:50;11.98;;;9.43;;
17177;SDS011;8704;52.006;4.374;2023-11-21T14:32:20;11.88;;;10.35;;
17177;SDS011;8704;52.006;4.374;2023-11-21T14:34:49;13.85;;;10.55;;
17177;SDS011;8704;52.006;4.374;2023-11-21T14:37:17;12.00;;;10.32;;
17177;SDS011;8704;52.006;4.374;2023-11-21T14:39:46;13.20;;;11.07;;
17177;SDS011;8704;52.006;4.374;2023-11-21T14:42:16;12.90;;;11.55;;
17177;SDS011;8704;52.006;4.374;2023-11-21T14:44:50;15.25;;;12.18;;
17177;SDS011;8704;52.006;4.374;2023-11-21T14:47:18;13.38;;;11.95;;
17177;SDS011;8704;52.006;4.374;2023-11-21T14:49:53;14.57;;;12.80;;
17177;SDS011;8704;52.006;4.374;2023-11-21T14:52:23;16.67;;;13.35;;
17177;SDS011;8704;52.006;4.374;2023-11-21T14:55:00;16.23;;;13.48;;